Time;durP1;ratioP1;P1;durP2;ratioP2;P2;SDS_P1;SDS_P2;PMS_P1;PMS_P2;Temp;Humidity;BMP_temperature;BMP_pressure;BME280_temperature;BME280_humidity;BME280_pressure;Samples;Min_cycle;Max_cycle;Signal;HPM_P1;HPM_P2
2021/08/29 00:02:12;;;;;;;1999.90;999.90;;;15.20;99.90;;;;;;5055650;28;20182;-69
2021/08/29 00:04:38;;;;;;;1999.90;999.90;;;15.20;99.90;;;;;;5055329;28;20199;-69
2021/08/29 00:07:04;;;;;;;1999.90;999.90;;;15.20;99.90;;;;;;5055428;28;20228;-69
2021/08/29 00:09:30;;;;;;;1999.90;999.90;;;15.20;99.90;;;;;;5055592;28;20207;-69
2021/08/29 00:11:56;;;;;;;1999.90;999.90;;;15.20;99.90;;;;;;5055395;28;20893;-69
2021/08/29 00:14:21;;;;;;;1999.90;999.90;;;15.20;99.90;;;;;;5055126;28;20192;-69
2021/08/29 00:16:47;;;;;;;1999.90;999.90;;;15.20;99.90;;;;;;5055275;28;20429;-69
2021/08/29 00:19:12;;;;;;;1999.90;999.90;;;15.20;99.90;;;;;;5055348;28;20210;-69
2021/08/29 00:21:38;;;;;;;1999.90;999.90;;;15.20;99.90;;;;;;5055249;28;20174;-69
2021/08/29 00:24:04;;;;;;;1999.90;999.90;;;15.20;99.90;;;;;;5054950;28;20179;-69
2021/08/29 00:26:29;;;;;;;1999.90;999.90;;;15.20;99.90;;;;;;5055177;28;20238;-69
2021/08/29 00:28:55;;;;;;;1999.90;999.90;;;15.10;99.90;;;;;;5055091;28;20412;-69
2021/08/29 00:31:21;;;;;;;1999.90;999.90;;;15.10;99.90;;;;;;5055126;28;20176;-69
2021/08/29 00:33:46;;;;;;;1999.90;999.90;;;15.00;99.90;;;;;;5055051;28;20266;-69
2021/08/29 00:36:12;;;;;;;1999.90;999.90;;;15.00;99.90;;;;;;5054807;28;20193;-69
2021/08/29 00:38:37;;;;;;;1999.90;999.90;;;15.00;99.90;;;;;;5054954;28;20257;-69
2021/08/29 00:41:08;;;;;;;1999.90;999.90;;;15.00;99.90;;;;;;5054894;28;20200;-69
2021/08/29 00:43:35;;;;;;;1999.90;999.90;;;14.90;99.90;;;;;;5055001;28;20576;-69
2021/08/29 00:46:01;;;;;;;1999.90;999.90;;;14.90;99.90;;;;;;5054395;28;20472;-69
2021/08/29 00:48:26;;;;;;;1999.90;999.90;;;14.80;99.90;;;;;;5054801;28;20422;-68
2021/08/29 00:50:53;;;;;;;1999.90;999.90;;;14.80;99.90;;;;;;5054664;28;20589;-68
2021/08/29 00:53:22;;;;;;;1999.90;999.90;;;14.80;99.90;;;;;;5054705;28;20170;-68
2021/08/29 00:55:48;;;;;;;1999.90;999.90;;;14.80;99.90;;;;;;5054309;28;20505;-68
2021/08/29 00:58:22;;;;;;;1999.90;999.90;;;14.80;99.90;;;;;;5054569;28;20947;-68
2021/08/29 01:00:48;;;;;;;1999.90;999.90;;;14.80;99.90;;;;;;5053386;28;20407;-69
2021/08/29 01:03:24;;;;;;;1999.90;999.90;;;14.80;99.90;;;;;;5054513;28;20395;-69
2021/08/29 01:06:06;;;;;;;1999.90;999.90;;;14.80;99.90;;;;;;5054061;28;20206;-69
2021/08/29 01:08:37;;;;;;;1999.90;999.90;;;14.80;99.90;;;;;;5054388;28;20412;-69
2021/08/29 01:11:20;;;;;;;1999.90;999.90;;;14.80;99.90;;;;;;5054419;28;20404;-69
2021/08/29 01:13:47;;;;;;;1999.90;999.90;;;14.80;99.90;;;;;;5054157;28;20407;-69
2021/08/29 01:16:23;;;;;;;1999.90;999.90;;;14.80;99.90;;;;;;5054102;28;20483;-68
2021/08/29 01:18:53;;;;;;;1999.90;999.90;;;14.80;99.90;;;;;;5054160;28;20854;-68
2021/08/29 01:21:28;;;;;;;1999.90;999.90;;;14.80;99.90;;;;;;5054091;28;20820;-68
2021/08/29 01:24:07;;;;;;;1999.90;999.90;;;14.80;99.90;;;;;;5053853;28;20400;-68
2021/08/29 01:26:35;;;;;;;1999.90;999.90;;;14.80;99.90;;;;;;5054014;28;20420;-68
2021/08/29 01:29:09;;;;;;;1999.90;999.90;;;14.80;99.90;;;;;;5054029;28;20424;-68
2021/08/29 01:31:36;;;;;;;1999.90;999.90;;;14.70;99.90;;;;;;5053979;28;20413;-68
2021/08/29 01:34:07;;;;;;;1999.90;999.90;;;14.80;99.90;;;;;;5053673;28;20796;-69
2021/08/29 01:36:34;;;;;;;1999.90;999.90;;;14.80;99.90;;;;;;5053984;28;20427;-69
2021/08/29 01:39:02;;;;;;;1999.90;999.90;;;14.80;99.90;;;;;;5053765;28;20596;-69
2021/08/29 01:41:28;;;;;;;1999.90;999.90;;;14.70;99.90;;;;;;5053887;28;20413;-68
2021/08/29 01:43:55;;;;;;;1999.90;999.90;;;14.70;99.90;;;;;;5053681;28;20443;-68
2021/08/29 01:46:23;;;;;;;1999.90;999.90;;;14.70;99.90;;;;;;5053579;28;20437;-68
2021/08/29 01:48:49;;;;;;;1999.90;999.90;;;14.60;99.90;;;;;;5053907;28;20423;-67
2021/08/29 01:51:15;;;;;;;1999.90;999.90;;;14.60;99.90;;;;;;5053620;28;20410;-68
2021/08/29 01:53:42;;;;;;;1999.90;999.90;;;14.60;99.90;;;;;;5053512;28;20443;-70
2021/08/29 01:56:08;;;;;;;1999.90;999.90;;;14.60;99.90;;;;;;5053369;28;20440;-68
2021/08/29 01:58:34;;;;;;;1999.90;999.90;;;14.50;99.90;;;;;;5053469;28;20968;-68
2021/08/29 02:01:02;;;;;;;1999.90;999.90;;;14.40;99.90;;;;;;5053382;28;20537;-69
2021/08/29 02:03:30;;;;;;;1999.90;999.90;;;14.50;99.90;;;;;;5053402;28;20406;-68
2021/08/29 02:06:32;;;;;;;1999.90;999.90;;;14.50;99.90;;;;;;5053070;28;20473;-68
2021/08/29 02:09:06;;;;;;;1999.90;999.90;;;14.40;99.90;;;;;;5053353;28;20905;-67
2021/08/29 02:11:41;;;;;;;1999.90;999.90;;;14.40;99.90;;;;;;5052867;28;20485;-68
2021/08/29 02:14:10;;;;;;;1999.90;999.90;;;14.40;99.90;;;;;;5053029;28;20402;-67
2021/08/29 02:16:42;;;;;;;1999.90;999.90;;;14.30;99.90;;;;;;5053104;28;20432;-68
2021/08/29 02:19:09;;;;;;;1999.90;999.90;;;14.40;99.90;;;;;;5052961;28;20532;-68
2021/08/29 02:21:36;;;;;;;1999.90;999.90;;;14.30;99.90;;;;;;5052983;28;20420;-68
2021/08/29 02:24:03;;;;;;;1999.90;999.90;;;14.40;99.90;;;;;;5052842;28;20452;-69
2021/08/29 02:26:29;;;;;;;1999.90;999.90;;;14.30;99.90;;;;;;5052979;28;20438;-68
2021/08/29 02:28:56;;;;;;;1999.90;999.90;;;14.30;99.90;;;;;;5052929;28;20442;-67
2021/08/29 02:31:22;;;;;;;1999.90;999.90;;;14.30;99.90;;;;;;5052906;28;20520;-67
2021/08/29 02:33:49;;;;;;;1999.90;999.90;;;14.30;99.90;;;;;;5052654;28;20863;-68
2021/08/29 02:36:19;;;;;;;1999.90;999.90;;;14.30;99.90;;;;;;5052603;28;20426;-68
2021/08/29 02:38:47;;;;;;;1999.90;999.90;;;14.30;99.90;;;;;;5052672;28;20531;-67
2021/08/29 02:41:13;;;;;;;1999.90;999.90;;;14.30;99.90;;;;;;5052624;28;20413;-68
2021/08/29 02:43:40;;;;;;;1999.90;999.90;;;14.30;99.90;;;;;;5052686;28;20400;-67
2021/08/29 02:46:06;;;;;;;1999.90;999.90;;;14.30;99.90;;;;;;5052495;28;20837;-68
2021/08/29 02:48:33;;;;;;;1999.90;999.90;;;14.30;99.90;;;;;;5052547;28;20463;-68
2021/08/29 02:51:00;;;;;;;1999.90;999.90;;;14.40;99.90;;;;;;5052455;28;20440;-68
2021/08/29 02:53:25;;;;;;;1999.90;999.90;;;14.30;99.90;;;;;;5052448;28;20742;-67
2021/08/29 02:55:59;;;;;;;1999.90;999.90;;;14.30;99.90;;;;;;5052196;28;20509;-68
2021/08/29 02:58:26;;;;;;;1999.90;999.90;;;14.30;99.90;;;;;;5052356;28;20464;-68
2021/08/29 03:00:52;;;;;;;1999.90;999.90;;;14.30;99.90;;;;;;5052378;28;20905;-68
2021/08/29 03:03:18;;;;;;;1999.90;999.90;;;14.40;99.90;;;;;;5052144;28;20490;-67
2021/08/29 03:05:44;;;;;;;1999.90;999.90;;;14.40;99.90;;;;;;5052022;28;20418;-67
2021/08/29 03:08:10;;;;;;;1999.90;999.90;;;14.30;99.90;;;;;;5052169;28;20407;-68
2021/08/29 03:10:36;;;;;;;1999.90;999.90;;;14.30;99.90;;;;;;5052180;28;20176;-68
2021/08/29 03:13:03;;;;;;;1999.90;999.90;;;14.30;99.90;;;;;;5052424;28;20413;-67
2021/08/29 03:15:31;;;;;;;1999.90;999.90;;;14.30;99.90;;;;;;5051890;28;20413;-68
2021/08/29 03:17:57;;;;;;;1999.90;999.90;;;14.30;99.90;;;;;;5051863;28;20480;-67
2021/08/29 03:20:27;;;;;;;1999.90;999.90;;;14.40;99.90;;;;;;5051983;28;20410;-67
2021/08/29 03:22:53;;;;;;;1999.90;999.90;;;14.40;99.90;;;;;;5051584;28;20425;-68
2021/08/29 03:25:19;;;;;;;1999.90;999.90;;;14.40;99.90;;;;;;5052100;28;20873;-68
2021/08/29 03:27:45;;;;;;;1999.90;999.90;;;14.40;99.90;;;;;;5051930;28;20432;-67
2021/08/29 03:30:11;;;;;;;1999.90;999.90;;;14.40;99.90;;;;;;5051899;28;20405;-67
2021/08/29 03:32:39;;;;;;;1999.90;999.90;;;14.40;99.90;;;;;;5051880;28;20181;-68
2021/08/29 03:35:05;;;;;;;1999.90;999.90;;;14.40;99.90;;;;;;5051578;28;20911;-69
2021/08/29 03:37:32;;;;;;;1999.90;999.90;;;14.40;99.90;;;;;;5051702;28;21141;-68
2021/08/29 03:40:00;;;;;;;1999.90;999.90;;;14.40;99.90;;;;;;5052089;28;20419;-68
2021/08/29 03:42:26;;;;;;;1999.90;999.90;;;14.40;99.90;;;;;;5051725;28;20417;-68
2021/08/29 03:44:53;;;;;;;1999.90;999.90;;;14.40;99.90;;;;;;5051439;28;20404;-68
2021/08/29 03:47:19;;;;;;;1999.90;999.90;;;14.40;99.90;;;;;;5051971;28;20581;-67
2021/08/29 03:49:45;;;;;;;1999.90;999.90;;;14.40;99.90;;;;;;5051747;28;20420;-68
2021/08/29 03:52:14;;;;;;;1999.90;999.90;;;14.30;99.90;;;;;;5051727;28;20940;-68
2021/08/29 03:54:41;;;;;;;1999.90;999.90;;;14.30;99.90;;;;;;5051794;28;20408;-68
2021/08/29 03:57:08;;;;;;;1999.90;999.90;;;14.30;99.90;;;;;;5051579;28;20431;-67
2021/08/29 03:59:34;;;;;;;1999.90;999.90;;;14.30;99.90;;;;;;5051560;28;20498;-69
2021/08/29 04:02:00;;;;;;;1999.90;999.90;;;14.30;99.90;;;;;;5051528;28;20501;-69
2021/08/29 04:04:27;;;;;;;1999.90;999.90;;;14.40;99.90;;;;;;5051472;28;20175;-68
2021/08/29 04:06:54;;;;;;;1999.90;999.90;;;14.40;99.90;;;;;;5051579;28;20196;-68
2021/08/29 04:09:22;;;;;;;1999.90;999.90;;;14.40;99.90;;;;;;5051549;28;20402;-67
2021/08/29 04:11:49;;;;;;;1999.90;999.90;;;14.40;99.90;;;;;;5051569;28;20876;-68
2021/08/29 04:14:15;;;;;;;1999.90;999.90;;;14.40;99.90;;;;;;5051393;28;20403;-68
2021/08/29 04:16:41;;;;;;;1999.90;999.90;;;14.40;99.90;;;;;;5051569;28;20493;-68
2021/08/29 04:19:08;;;;;;;1999.90;999.90;;;14.50;99.90;;;;;;5051429;28;20207;-68
2021/08/29 04:21:34;;;;;;;1999.90;999.90;;;14.50;99.90;;;;;;5051385;28;20411;-68
2021/08/29 04:24:00;;;;;;;1999.90;999.90;;;14.50;99.90;;;;;;5051607;28;20458;-68
2021/08/29 04:26:26;;;;;;;1999.90;999.90;;;14.50;99.90;;;;;;5051327;28;20768;-68
2021/08/29 04:28:52;;;;;;;1999.90;999.90;;;14.50;99.90;;;;;;5051510;28;20464;-68
2021/08/29 04:31:28;;;;;;;1999.90;999.90;;;14.60;99.90;;;;;;5051262;28;20678;-68
2021/08/29 04:33:54;;;;;;;1999.90;999.90;;;14.60;99.90;;;;;;5052326;28;20407;-68
2021/08/29 04:36:20;;;;;;;1999.90;999.90;;;14.60;99.90;;;;;;5055013;28;20797;-68
2021/08/29 04:38:46;;;;;;;1999.90;999.90;;;14.60;99.90;;;;;;5054952;28;20470;-68
2021/08/29 04:41:11;;;;;;;1999.90;999.90;;;14.60;99.90;;;;;;5054896;28;20202;-68
2021/08/29 04:43:37;;;;;;;1999.90;999.90;;;14.70;99.90;;;;;;5054926;28;20174;-69
2021/08/29 04:46:07;;;;;;;1999.90;999.90;;;14.60;99.90;;;;;;5054583;28;20207;-67
2021/08/29 04:48:32;;;;;;;1999.90;999.90;;;14.60;99.90;;;;;;5054884;28;20554;-67
2021/08/29 04:50:58;;;;;;;1999.90;999.90;;;14.70;99.90;;;;;;5054738;28;20405;-67
2021/08/29 04:53:24;;;;;;;1999.90;999.90;;;14.70;99.90;;;;;;5054694;28;20228;-68
2021/08/29 04:55:50;;;;;;;1999.90;999.90;;;14.70;99.90;;;;;;5054470;28;20442;-68
2021/08/29 04:58:15;;;;;;;1999.90;999.90;;;14.70;99.90;;;;;;5054531;28;20449;-68
2021/08/29 05:00:41;;;;;;;1999.90;999.90;;;14.70;99.90;;;;;;5054568;28;20170;-68
2021/08/29 05:03:07;;;;;;;1999.90;999.90;;;14.70;99.90;;;;;;5054557;28;20168;-67
2021/08/29 05:05:32;;;;;;;1999.90;999.90;;;14.60;99.90;;;;;;5054250;28;20693;-67
2021/08/29 05:07:58;;;;;;;1999.90;999.90;;;14.60;99.90;;;;;;5054449;28;20553;-68
2021/08/29 05:10:23;;;;;;;1999.90;999.90;;;14.60;99.90;;;;;;5054343;28;20586;-69
2021/08/29 05:12:49;;;;;;;1999.90;999.90;;;14.60;99.90;;;;;;5054395;28;20168;-68
2021/08/29 05:15:15;;;;;;;1999.90;999.90;;;14.60;99.90;;;;;;5054172;28;20222;-68
2021/08/29 05:17:40;;;;;;;1999.90;999.90;;;14.60;99.90;;;;;;5054377;28;20226;-67
2021/08/29 05:20:06;;;;;;;1999.90;999.90;;;14.60;99.90;;;;;;5054211;28;20168;-68
2021/08/29 05:22:32;;;;;;;1999.90;999.90;;;14.60;99.90;;;;;;5054167;28;20168;-68
2021/08/29 05:24:57;;;;;;;1999.90;999.90;;;14.60;99.90;;;;;;5054020;28;20410;-68
2021/08/29 05:27:23;;;;;;;1999.90;999.90;;;14.70;99.90;;;;;;5054029;28;20196;-67
2021/08/29 05:29:49;;;;;;;1999.90;999.90;;;14.70;99.90;;;;;;5054042;28;20177;-67
2021/08/29 05:32:14;;;;;;;1999.90;999.90;;;14.70;99.90;;;;;;5054026;28;20172;-67
2021/08/29 05:34:40;;;;;;;1999.90;999.90;;;14.70;99.90;;;;;;5053810;28;20177;-67
2021/08/29 05:37:05;;;;;;;1999.90;999.90;;;14.70;99.90;;;;;;5053923;28;20867;-67
2021/08/29 05:39:31;;;;;;;1999.90;999.90;;;14.80;99.90;;;;;;5053854;28;20256;-68
2021/08/29 05:41:57;;;;;;;1999.90;999.90;;;14.80;99.90;;;;;;5053880;28;20168;-67
2021/08/29 05:44:22;;;;;;;1999.90;999.90;;;14.80;99.90;;;;;;5053616;28;20512;-68
2021/08/29 05:46:48;;;;;;;1999.90;999.90;;;14.80;99.90;;;;;;5052781;28;20207;-68
2021/08/29 05:49:13;;;;;;;1999.90;999.90;;;14.90;99.90;;;;;;5053781;28;20291;-68
2021/08/29 05:51:39;;;;;;;1999.90;999.90;;;14.90;99.90;;;;;;5053672;28;20668;-68
2021/08/29 05:54:05;;;;;;;1999.90;999.90;;;14.90;99.90;;;;;;5053456;28;20186;-68
2021/08/29 05:56:30;;;;;;;1999.90;999.90;;;14.90;99.90;;;;;;5053491;28;20258;-68
2021/08/29 05:58:56;;;;;;;1999.90;999.90;;;14.90;99.90;;;;;;5053423;28;20197;-68
2021/08/29 06:01:21;;;;;;;1999.90;999.90;;;14.80;99.90;;;;;;5053455;28;20176;-68
2021/08/29 06:03:47;;;;;;;1999.90;999.90;;;14.90;99.90;;;;;;5053415;28;20185;-68
2021/08/29 06:06:13;;;;;;;1999.90;999.90;;;14.90;99.90;;;;;;5053573;28;20561;-67
2021/08/29 06:08:38;;;;;;;1999.90;999.90;;;15.00;99.90;;;;;;5053513;28;20844;-68
2021/08/29 06:11:07;;;;;;;1999.90;999.90;;;15.00;99.90;;;;;;5053483;28;20269;-68
2021/08/29 06:13:33;;;;;;;1999.90;999.90;;;15.00;99.90;;;;;;5053246;28;20318;-68
2021/08/29 06:15:59;;;;;;;1999.90;999.90;;;15.00;99.90;;;;;;5053019;28;20508;-67
2021/08/29 06:18:25;;;;;;;1999.90;999.90;;;15.00;99.90;;;;;;5053116;28;20988;-68
2021/08/29 06:20:50;;;;;;;1999.90;999.90;;;15.10;99.90;;;;;;5053091;28;20195;-68
2021/08/29 06:23:16;;;;;;;1999.90;999.90;;;15.10;99.90;;;;;;5052969;28;20176;-67
2021/08/29 06:25:42;;;;;;;1999.90;999.90;;;15.10;99.90;;;;;;5052777;28;20631;-68
2021/08/29 06:28:07;;;;;;;1999.90;999.90;;;15.20;99.90;;;;;;5052918;28;20416;-68
2021/08/29 06:30:33;;;;;;;1999.90;999.90;;;15.30;99.90;;;;;;5052897;28;20175;-68
2021/08/29 06:32:58;;;;;;;1999.90;999.90;;;15.30;99.90;;;;;;5052941;28;20184;-68
2021/08/29 06:35:24;;;;;;;1999.90;999.90;;;15.30;99.90;;;;;;5052653;28;20176;-68
2021/08/29 06:37:50;;;;;;;1999.90;999.90;;;15.40;99.90;;;;;;5052580;28;20570;-68
2021/08/29 06:40:15;;;;;;;1999.90;999.90;;;15.40;99.90;;;;;;5052735;28;20257;-67
2021/08/29 06:42:41;;;;;;;1999.90;999.90;;;15.50;99.90;;;;;;5052596;28;20171;-68
2021/08/29 06:45:09;;;;;;;1999.90;999.90;;;15.50;99.90;;;;;;5052591;28;20184;-68
2021/08/29 06:47:35;;;;;;;1999.90;999.90;;;15.60;99.90;;;;;;5052471;28;20471;-68
2021/08/29 06:50:01;;;;;;;1999.90;999.90;;;15.60;99.90;;;;;;5052565;28;20459;-68
2021/08/29 06:52:26;;;;;;;1999.90;999.90;;;15.60;99.90;;;;;;5052455;28;20234;-68
2021/08/29 06:54:52;;;;;;;1999.90;999.90;;;15.50;99.90;;;;;;5052329;28;20169;-68
2021/08/29 06:57:17;;;;;;;1999.90;999.90;;;15.50;99.90;;;;;;5052260;28;20874;-67
2021/08/29 06:59:43;;;;;;;1999.90;999.90;;;15.50;99.90;;;;;;5052286;28;20195;-68
2021/08/29 07:02:08;;;;;;;1999.90;999.90;;;15.50;99.90;;;;;;5052254;28;20210;-68
2021/08/29 07:04:34;;;;;;;1999.90;999.90;;;15.50;99.90;;;;;;5052161;28;20532;-68
2021/08/29 07:07:00;;;;;;;1999.90;999.90;;;15.40;99.90;;;;;;5052184;28;20236;-68
2021/08/29 07:09:26;;;;;;;1999.90;999.90;;;15.40;99.90;;;;;;5052560;28;20675;-68
2021/08/29 07:11:51;;;;;;;1999.90;999.90;;;15.40;99.90;;;;;;5052235;28;20660;-67
2021/08/29 07:14:17;;;;;;;1999.90;999.90;;;15.30;99.90;;;;;;5052041;28;20197;-68
2021/08/29 07:16:42;;;;;;;1999.90;999.90;;;15.40;99.90;;;;;;5052088;28;20671;-69
2021/08/29 07:19:08;;;;;;;1999.90;999.90;;;15.40;99.90;;;;;;5052387;28;20233;-68
2021/08/29 07:21:34;;;;;;;1999.90;999.90;;;15.40;99.90;;;;;;5052021;28;20247;-68
2021/08/29 07:23:59;;;;;;;1999.90;999.90;;;15.40;99.90;;;;;;5051962;28;20174;-68
2021/08/29 07:26:25;;;;;;;1999.90;999.90;;;15.40;99.90;;;;;;5051892;28;20192;-68
2021/08/29 07:28:51;;;;;;;1999.90;999.90;;;15.50;99.90;;;;;;5052005;28;20177;-67
2021/08/29 07:31:17;;;;;;;1999.90;999.90;;;15.50;99.90;;;;;;5052000;28;20206;-68
2021/08/29 07:33:42;;;;;;;1999.90;999.90;;;15.50;99.90;;;;;;5051847;28;20450;-68
2021/08/29 07:36:08;;;;;;;1999.90;999.90;;;15.60;99.90;;;;;;5051766;28;20189;-68
2021/08/29 07:38:34;;;;;;;1999.90;999.90;;;15.70;99.90;;;;;;5052027;28;20569;-67
2021/08/29 07:41:00;;;;;;;1999.90;999.90;;;15.70;99.90;;;;;;5051836;28;20411;-68
2021/08/29 07:43:26;;;;;;;1999.90;999.90;;;15.70;99.90;;;;;;5051850;28;20488;-67
2021/08/29 07:45:52;;;;;;;1999.90;999.90;;;15.80;99.90;;;;;;5051531;28;20537;-68
2021/08/29 07:48:17;;;;;;;1999.90;999.90;;;15.80;99.90;;;;;;5051867;28;20173;-70
2021/08/29 07:50:43;;;;;;;1999.90;999.90;;;15.80;99.90;;;;;;5051715;28;20706;-68
2021/08/29 07:53:08;;;;;;;1999.90;999.90;;;15.90;99.90;;;;;;5051782;28;20182;-68
2021/08/29 07:55:35;;;;;;;1999.90;999.90;;;15.90;99.90;;;;;;5051436;28;20171;-68
2021/08/29 07:58:00;;;;;;;1999.90;999.90;;;16.00;99.90;;;;;;5051544;28;20541;-68
2021/08/29 08:00:27;;;;;;;1999.90;999.90;;;16.00;99.90;;;;;;5051710;28;20456;-68
2021/08/29 08:02:52;;;;;;;1999.90;999.90;;;16.00;99.90;;;;;;5051674;28;20229;-68
2021/08/29 08:05:18;;;;;;;1999.90;999.90;;;16.10;99.90;;;;;;5048660;28;20884;-71
2021/08/29 08:07:43;;;;;;;1999.90;999.90;;;16.20;99.90;;;;;;5050359;28;20190;-70
2021/08/29 08:10:10;;;;;;;1999.90;999.90;;;16.30;99.90;;;;;;5053492;28;20177;-71
2021/08/29 08:12:35;;;;;;;1999.90;999.90;;;16.40;99.90;;;;;;5054431;28;20195;-70
2021/08/29 08:15:02;;;;;;;1999.90;999.90;;;16.50;99.90;;;;;;5054262;28;20896;-70
2021/08/29 08:17:28;;;;;;;1999.90;999.90;;;16.40;99.90;;;;;;5054235;28;20270;-71
2021/08/29 08:19:54;;;;;;;1999.90;999.90;;;16.30;99.90;;;;;;5054329;28;20493;-70
2021/08/29 08:22:19;;;;;;;1999.90;999.90;;;16.30;99.90;;;;;;5054625;28;20152;-69
2021/08/29 08:24:45;;;;;;;1999.90;999.90;;;16.30;99.90;;;;;;5054191;28;20646;-69
2021/08/29 08:27:10;;;;;;;1999.90;999.90;;;16.20;99.90;;;;;;5054392;28;20278;-70
2021/08/29 08:29:36;;;;;;;1999.90;999.90;;;16.10;99.90;;;;;;5054362;28;20536;-69
2021/08/29 08:32:02;;;;;;;1999.90;999.90;;;16.00;99.90;;;;;;5054373;28;20250;-69
2021/08/29 08:34:27;;;;;;;1999.90;999.90;;;15.90;99.90;;;;;;5054047;28;20190;-69
2021/08/29 08:36:53;;;;;;;1999.90;999.90;;;15.90;99.90;;;;;;5053998;28;20447;-69
2021/08/29 08:39:19;;;;;;;1999.90;999.90;;;15.90;99.90;;;;;;5054210;28;20195;-70
2021/08/29 08:41:44;;;;;;;1999.90;999.90;;;15.90;99.90;;;;;;5054355;28;20172;-69
2021/08/29 08:44:11;;;;;;;1999.90;999.90;;;15.90;99.90;;;;;;5054409;28;20181;-69
2021/08/29 08:46:37;;;;;;;1999.90;999.90;;;16.00;99.90;;;;;;5054468;28;20316;-69
2021/08/29 08:49:03;;;;;;;1999.90;999.90;;;16.10;99.90;;;;;;5054527;28;20456;-69
2021/08/29 08:51:30;;;;;;;1999.90;999.90;;;16.10;99.90;;;;;;5054457;28;20187;-69
2021/08/29 08:53:58;;;;;;;1999.90;999.90;;;16.10;99.90;;;;;;5054234;28;20422;-69
2021/08/29 08:56:25;;;;;;;1999.90;999.90;;;16.00;99.90;;;;;;5053949;28;20905;-69
2021/08/29 08:58:55;;;;;;;1999.90;999.90;;;16.00;99.90;;;;;;5050548;28;20583;-70
2021/08/29 09:01:21;;;;;;;1999.90;999.90;;;16.10;99.90;;;;;;5053930;28;20908;-69
2021/08/29 09:03:47;;;;;;;1999.90;999.90;;;16.10;99.90;;;;;;5054081;28;20405;-70
2021/08/29 09:06:13;;;;;;;1999.90;999.90;;;16.20;99.90;;;;;;5053375;28;20214;-70
2021/08/29 09:08:39;;;;;;;1999.90;999.90;;;16.30;99.90;;;;;;5053811;28;20433;-69
2021/08/29 09:11:05;;;;;;;1999.90;999.90;;;16.40;99.90;;;;;;5053768;28;20167;-69
2021/08/29 09:13:46;;;;;;;1999.90;999.90;;;16.40;99.90;;;;;;5053633;28;20178;-69
2021/08/29 09:16:13;;;;;;;1999.90;999.90;;;16.40;99.90;;;;;;5053570;28;21139;-69
2021/08/29 09:18:49;;;;;;;1999.90;999.90;;;16.40;99.90;;;;;;5052844;28;20448;-69
2021/08/29 09:21:35;;;;;;;1999.90;999.90;;;16.40;99.90;;;;;;5052040;28;20405;-69
2021/08/29 09:24:11;;;;;;;1999.90;999.90;;;16.40;99.90;;;;;;5053366;28;20405;-69
2021/08/29 09:26:41;;;;;;;1999.90;999.90;;;16.40;99.90;;;;;;5052782;28;20426;-69
2021/08/29 09:29:16;;;;;;;1999.90;999.90;;;16.30;99.90;;;;;;5053529;28;20904;-70
2021/08/29 09:31:43;;;;;;;1999.90;999.90;;;16.20;99.90;;;;;;5053191;28;20765;-70
2021/08/29 09:34:09;;;;;;;1999.90;999.90;;;16.10;99.90;;;;;;5052165;28;20443;-70
2021/08/29 09:36:35;;;;;;;1999.90;999.90;;;16.10;99.90;;;;;;5053195;28;20521;-67
2021/08/29 09:39:14;;;;;;;1999.90;999.90;;;16.00;99.90;;;;;;5053155;28;20252;-70
2021/08/29 09:41:41;;;;;;;1999.90;999.90;;;16.00;99.90;;;;;;5052578;28;20171;-70
2021/08/29 09:44:17;;;;;;;1999.90;999.90;;;15.90;99.90;;;;;;5052879;28;20767;-69
2021/08/29 09:46:55;;;;;;;1999.90;999.90;;;16.00;99.90;;;;;;5052759;28;20445;-70
2021/08/29 09:49:34;;;;;;;1999.90;999.90;;;16.00;99.90;;;;;;5052610;28;20808;-68
2021/08/29 09:52:02;;;;;;;1999.90;999.90;;;16.10;99.90;;;;;;5052534;28;20409;-65
2021/08/29 09:54:35;;;;;;;1999.90;999.90;;;16.00;99.90;;;;;;5052737;28;20495;-69
2021/08/29 09:57:04;;;;;;;1999.90;999.90;;;16.00;99.90;;;;;;5052085;28;20904;-68
2021/08/29 09:59:41;;;;;;;1999.90;999.90;;;16.10;99.90;;;;;;5052630;28;20482;-68
2021/08/29 10:02:07;;;;;;;1999.90;999.90;;;16.10;99.90;;;;;;5052589;28;20441;-68
2021/08/29 10:04:33;;;;;;;1999.90;999.90;;;16.10;99.90;;;;;;5052113;28;20406;-69
2021/08/29 10:07:19;;;;;;;1999.90;999.90;;;16.00;99.90;;;;;;5052485;28;20428;-69
2021/08/29 10:09:46;;;;;;;1999.90;999.90;;;16.00;99.90;;;;;;5052633;28;20893;-69
2021/08/29 10:12:13;;;;;;;1999.90;999.90;;;15.90;99.90;;;;;;5052159;28;20950;-69
2021/08/29 10:14:41;;;;;;;1999.90;999.90;;;15.80;99.90;;;;;;5052237;28;20403;-69
2021/08/29 10:17:09;;;;;;;1999.90;999.90;;;15.70;99.90;;;;;;5052059;28;20426;-69
2021/08/29 10:19:38;;;;;;;1999.90;999.90;;;15.60;99.90;;;;;;5051910;28;20990;-70
2021/08/29 10:22:05;;;;;;;1999.90;999.90;;;15.50;99.90;;;;;;5051913;28;20410;-69
2021/08/29 10:24:33;;;;;;;1999.90;999.90;;;15.40;99.90;;;;;;5052087;28;20892;-70
2021/08/29 10:27:08;;;;;;;1999.90;999.90;;;15.50;99.90;;;;;;5051548;28;20510;-70
2021/08/29 10:29:47;;;;;;;1999.90;999.90;;;15.60;99.90;;;;;;5052117;28;20466;-70
2021/08/29 10:32:27;;;;;;;1999.90;999.90;;;15.80;99.90;;;;;;5066300;22;20491;-71
2021/08/29 10:34:53;;;;;;;1999.90;999.90;;;15.80;99.90;;;;;;5011721;28;20456;-72
2021/08/29 10:37:19;;;;;;;1999.90;999.90;;;15.90;99.90;;;;;;5012799;28;20393;-72
2021/08/29 10:39:45;;;;;;;1999.90;999.90;;;15.90;99.90;;;;;;5012137;28;20467;-72
2021/08/29 10:42:11;;;;;;;1999.90;999.90;;;15.90;99.90;;;;;;5011551;28;20877;-72
2021/08/29 10:44:38;;;;;;;1999.90;999.90;;;15.90;99.90;;;;;;5011797;28;20435;-69
2021/08/29 10:47:05;;;;;;;1999.90;999.90;;;15.90;99.90;;;;;;5011881;28;20410;-69
2021/08/29 10:49:33;;;;;;;1999.90;999.90;;;15.90;99.90;;;;;;5011815;28;20408;-69
2021/08/29 10:52:00;;;;;;;1999.90;999.90;;;15.90;99.90;;;;;;5012079;28;20438;-69
2021/08/29 10:54:25;;;;;;;1999.90;999.90;;;15.90;99.90;;;;;;5011715;28;20489;-68
2021/08/29 10:56:51;;;;;;;1999.90;999.90;;;15.90;99.90;;;;;;5011303;28;20986;-69
2021/08/29 10:59:17;;;;;;;1999.90;999.90;;;15.90;99.90;;;;;;5011607;28;20731;-69
2021/08/29 11:01:54;;;;;;;1999.90;999.90;;;15.90;99.90;;;;;;5011443;28;20264;-68
2021/08/29 11:04:26;;;;;;;1999.90;999.90;;;15.80;99.90;;;;;;5011360;28;20185;-69
2021/08/29 11:06:53;;;;;;;1999.90;999.90;;;15.70;99.90;;;;;;5011697;28;20833;-68
2021/08/29 11:09:37;;;;;;;1999.90;999.90;;;15.80;99.90;;;;;;5011825;28;20441;-68
2021/08/29 11:12:26;;;;;;;1999.90;999.90;;;15.70;99.90;;;;;;5011271;28;20466;-69
2021/08/29 11:14:54;;;;;;;1999.90;999.90;;;15.70;99.90;;;;;;5001287;28;20430;-71
2021/08/29 11:17:31;;;;;;;1999.90;999.90;;;15.60;99.90;;;;;;5017445;28;20469;-71
2021/08/29 11:20:03;;;;;;;1999.90;999.90;;;15.60;99.90;;;;;;4996584;28;20541;-71
2021/08/29 11:22:39;;;;;;;1999.90;999.90;;;15.70;99.90;;;;;;5011225;28;20797;-70
2021/08/29 11:25:20;;;;;;;1999.90;999.90;;;15.70;99.90;;;;;;5023755;28;20421;-70
2021/08/29 11:27:51;;;;;;;1999.90;999.90;;;15.70;99.90;;;;;;5012003;28;20413;-71
2021/08/29 11:30:35;;;;;;;1999.90;999.90;;;15.80;99.90;;;;;;5017506;28;20898;-70
2021/08/29 11:33:02;;;;;;;1999.90;999.90;;;15.80;99.90;;;;;;5010908;28;20425;-70
2021/08/29 11:35:36;;;;;;;1999.90;999.90;;;15.80;99.90;;;;;;5011232;28;20485;-70
2021/08/29 11:38:11;;;;;;;1999.90;999.90;;;15.70;99.90;;;;;;5011129;28;20479;-70
2021/08/29 11:40:44;;;;;;;1999.90;999.90;;;15.60;99.90;;;;;;5010905;28;20399;-69
2021/08/29 11:43:32;;;;;;;1999.90;999.90;;;15.60;99.90;;;;;;5010590;28;20413;-69
2021/08/29 11:46:16;;;;;;;1999.90;999.90;;;15.60;99.90;;;;;;5011356;28;20439;-69
2021/08/29 11:48:53;;;;;;;1999.90;999.90;;;15.60;99.90;;;;;;5010340;28;20496;-70
2021/08/29 11:51:31;;;;;;;1999.90;999.90;;;15.60;99.90;;;;;;5017089;28;20439;-70
2021/08/29 11:53:57;;;;;;;1999.90;999.90;;;15.70;99.90;;;;;;5012031;28;20420;-69
2021/08/29 11:56:28;;;;;;;1999.90;999.90;;;15.70;99.90;;;;;;5011422;28;20752;-70
2021/08/29 11:58:54;;;;;;;1999.90;999.90;;;15.70;99.90;;;;;;5011460;28;20631;-70
2021/08/29 12:01:20;;;;;;;1999.90;999.90;;;15.60;99.90;;;;;;5011609;28;20508;-68
2021/08/29 12:03:46;;;;;;;1999.90;999.90;;;15.50;99.90;;;;;;5010971;28;20465;-68